Time;durP1;ratioP1;P1;durP2;ratioP2;P2;SDS_P1;SDS_P2;PMS_P1;PMS_P2;Temp;Humidity;BMP_temperature;BMP_pressure;BME280_temperature;BME280_humidity;BME280_pressure;Samples;Min_cycle;Max_cycle;Signal;HPM_P1;HPM_P2
2021/04/14 00:01:36;;;;;;;5.95;2.60;;;;;;;11.15;41.72;100508.69;4957377;28;20031;-66
2021/04/14 00:04:05;;;;;;;4.97;2.78;;;;;;;11.15;41.71;100503.22;4957287;28;20484;-68
2021/04/14 00:06:30;;;;;;;3.92;2.40;;;;;;;11.11;41.66;100491.22;4957404;28;20027;-68
2021/04/14 00:08:56;;;;;;;5.50;3.03;;;;;;;11.05;41.91;100511.44;4957467;28;20086;-67
2021/04/14 00:11:21;;;;;;;5.15;2.80;;;;;;;11.01;41.67;100500.28;4957759;28;20031;-67
2021/04/14 00:13:47;;;;;;;4.28;2.22;;;;;;;11.00;41.79;100500.53;4957672;28;20082;-68
2021/04/14 00:16:16;;;;;;;4.35;2.45;;;;;;;10.98;41.81;100503.56;4957375;28;20031;-66
2021/04/14 00:18:42;;;;;;;3.97;2.67;;;;;;;10.97;41.91;100501.13;4957249;28;20507;-67
2021/04/14 00:21:09;;;;;;;4.65;2.50;;;;;;;10.97;41.53;100496.47;4956331;28;20031;-66
2021/04/14 00:23:35;;;;;;;5.32;2.55;;;;;;;10.97;41.62;100493.72;4956824;28;20034;-66
2021/04/14 00:26:00;;;;;;;5.05;2.85;;;;;;;10.99;41.71;100493.47;4958004;28;20019;-68
2021/04/14 00:28:26;;;;;;;8.50;2.60;;;;;;;10.99;41.84;100498.94;4960511;28;20048;-66
2021/04/14 00:30:53;;;;;;;4.68;2.65;;;;;;;10.97;41.62;100493.72;4960892;28;20027;-67
2021/04/14 00:33:19;;;;;;;5.30;2.33;;;;;;;10.93;41.86;100495.41;4961205;28;20031;-68
2021/04/14 00:35:44;;;;;;;6.40;2.60;;;;;;;10.90;42.03;100498.66;4959958;28;20026;-66
2021/04/14 00:38:12;;;;;;;6.95;2.60;;;;;;;10.88;41.90;100486.41;4960635;28;20500;-66
2021/04/14 00:40:41;;;;;;;4.70;2.60;;;;;;;10.87;41.52;100485.56;4960664;28;20070;-66
2021/04/14 00:43:19;;;;;;;3.10;2.40;;;;;;;10.85;41.25;100482.34;4960523;28;20067;-66
2021/04/14 00:45:45;;;;;;;4.78;2.70;;;;;;;10.80;41.42;100477.72;4965949;28;20027;-66
2021/04/14 00:48:12;;;;;;;5.15;2.83;;;;;;;10.90;41.35;100492.41;4960982;28;20094;-67
2021/04/14 00:50:38;;;;;;;5.35;2.90;;;;;;;10.90;41.27;100492.41;4953492;28;20106;-66
2021/04/14 00:53:04;;;;;;;6.85;2.42;;;;;;;10.89;41.13;100494.31;4960631;28;20480;-67
2021/04/14 00:55:32;;;;;;;5.20;2.47;;;;;;;10.88;41.21;100497.31;4960386;28;20492;-66
2021/04/14 00:57:58;;;;;;;4.97;2.70;;;;;;;10.84;41.63;100503.31;4960541;28;20039;-66
2021/04/14 01:00:34;;;;;;;6.18;2.70;;;;;;;10.81;41.40;100505.78;4960373;28;20037;-66
2021/04/14 01:03:00;;;;;;;;;;;;;;;10.72;41.39;100491.91;4960373;28;20462;-66
2021/04/14 01:05:29;;;;;;;4.47;2.67;;;;;;;10.65;41.45;100491.41;4959784;28;20403;-66
2021/04/14 01:07:54;;;;;;;3.60;2.60;;;;;;;10.62;41.86;100491.94;4960193;28;20038;-66
2021/04/14 01:10:20;;;;;;;5.47;3.03;;;;;;;10.59;42.04;100493.31;4960040;28;20034;-67
2021/04/14 01:12:46;;;;;;;4.32;2.60;;;;;;;10.57;41.98;100491.97;4960612;28;20480;-68
2021/04/14 01:15:16;;;;;;;3.53;2.70;;;;;;;10.53;42.46;100495.22;4960078;28;20503;-66
2021/04/14 01:17:41;;;;;;;5.70;2.65;;;;;;;10.49;42.37;100494.16;4960315;28;20031;-67
2021/04/14 01:20:07;;;;;;;5.43;2.90;;;;;;;10.45;42.28;100492.25;4959689;28;20038;-66
2021/04/14 01:22:33;;;;;;;4.10;2.47;;;;;;;10.45;41.95;100490.34;4960268;28;20373;-68
2021/04/14 01:25:00;;;;;;;4.25;2.67;;;;;;;10.43;42.21;100488.97;4959748;28;20392;-66
2021/04/14 01:27:25;;;;;;;4.15;2.58;;;;;;;10.39;42.09;100499.63;4960073;28;20035;-66
2021/04/14 01:29:50;;;;;;;5.18;2.80;;;;;;;10.36;42.45;100494.69;4959674;28;20042;-67
2021/04/14 01:32:16;;;;;;;7.20;2.72;;;;;;;10.35;42.46;100493.03;4960328;28;20051;-68
2021/04/14 01:34:41;;;;;;;4.38;2.58;;;;;;;10.30;42.24;100504.75;4959555;28;20035;-66
2021/04/14 01:37:07;;;;;;;5.60;2.70;;;;;;;10.26;42.46;100498.25;4966706;28;20408;-66
2021/04/14 01:39:32;;;;;;;3.08;2.33;;;;;;;10.24;42.87;100494.97;4959636;28;20712;-68
2021/04/14 01:41:57;;;;;;;4.55;2.95;;;;;;;10.19;42.89;100494.97;4959281;28;20523;-66
2021/04/14 01:44:23;;;;;;;4.72;2.95;;;;;;;10.08;43.36;100491.44;4959392;28;20041;-66
2021/04/14 01:46:48;;;;;;;5.50;2.92;;;;;;;10.01;43.48;100491.72;4964330;28;20024;-67
2021/04/14 01:49:14;;;;;;;4.43;2.70;;;;;;;9.86;43.53;100475.38;4959357;28;20027;-66
2021/04/14 01:51:39;;;;;;;4.68;2.72;;;;;;;9.97;43.92;100487.88;4953234;28;20034;-66
2021/04/14 01:54:06;;;;;;;3.70;2.55;;;;;;;9.95;44.04;100484.63;4959433;28;21114;-66
2021/04/14 01:56:31;;;;;;;5.68;3.88;;;;;;;9.95;43.99;100479.19;4959084;28;20034;-68
2021/04/14 01:58:57;;;;;;;6.00;4.20;;;;;;;9.90;43.81;100490.06;4959527;28;20107;-67
2021/04/14 02:01:22;;;;;;;5.80;3.55;;;;;;;9.87;44.23;100493.34;4959492;28;20106;-66
2021/04/14 02:03:48;;;;;;;5.47;3.13;;;;;;;9.82;44.43;100488.72;4959271;28;20113;-67
2021/04/14 02:06:16;;;;;;;6.93;3.47;;;;;;;9.82;44.33;100491.44;4958653;28;20023;-66
2021/04/14 02:08:43;;;;;;;5.85;2.83;;;;;;;9.77;44.19;100484.06;4959138;28;20074;-67
2021/04/14 02:11:10;;;;;;;5.05;2.97;;;;;;;9.74;44.17;100487.34;4959666;28;20023;-66
2021/04/14 02:13:38;;;;;;;4.90;3.08;;;;;;;9.72;44.00;100481.34;4959201;28;20031;-66
2021/04/14 02:16:06;;;;;;;5.57;2.80;;;;;;;9.72;44.42;100480.53;4959080;28;20055;-66
2021/04/14 02:18:32;;;;;;;6.35;3.15;;;;;;;9.68;44.30;100484.88;4959244;28;20120;-68
2021/04/14 02:20:59;;;;;;;5.03;3.00;;;;;;;9.64;44.51;100481.06;4957666;28;20047;-66
2021/04/14 02:23:33;;;;;;;5.10;2.92;;;;;;;9.63;44.53;100473.97;4954294;28;20015;-66
2021/04/14 02:26:02;;;;;;;4.32;3.10;;;;;;;9.53;44.36;100466.63;4949898;28;20078;-66
2021/04/14 02:28:28;;;;;;;3.78;2.72;;;;;;;9.59;44.25;100476.41;4958456;28;20043;-66
2021/04/14 02:30:54;;;;;;;4.22;3.33;;;;;;;9.56;44.11;100474.22;4958364;28;20036;-67
2021/04/14 02:33:20;;;;;;;4.57;2.90;;;;;;;9.52;44.79;100481.31;4958782;28;20055;-66
2021/04/14 02:35:47;;;;;;;3.92;2.83;;;;;;;9.48;44.78;100488.38;4963647;28;20081;-68
2021/04/14 02:38:12;;;;;;;6.15;3.03;;;;;;;9.44;44.87;100469.03;4958768;28;20471;-66
2021/04/14 02:40:39;;;;;;;6.55;3.20;;;;;;;9.44;44.59;100479.94;4958189;28;20102;-66
2021/04/14 02:43:05;;;;;;;5.18;3.00;;;;;;;9.42;44.08;100469.31;4958587;28;20499;-66
2021/04/14 02:45:33;;;;;;;5.93;3.58;;;;;;;9.41;44.43;100477.75;4961728;28;20554;-66
2021/04/14 02:47:59;;;;;;;3.72;3.00;;;;;;;9.38;43.99;100476.38;4959797;28;20031;-66
2021/04/14 02:50:24;;;;;;;4.47;2.83;;;;;;;9.36;44.19;100477.72;4957584;28;20035;-66
2021/04/14 02:52:50;;;;;;;4.95;2.97;;;;;;;9.34;44.81;100474.47;4958196;28;20027;-66
2021/04/14 02:55:17;;;;;;;4.10;2.70;;;;;;;9.17;44.82;100453.75;4958430;28;20027;-67
2021/04/14 02:57:42;;;;;;;4.13;3.05;;;;;;;9.23;44.57;100457.28;4958530;28;20031;-66
2021/04/14 03:00:10;;;;;;;7.65;3.00;;;;;;;9.23;44.75;100471.72;4958251;28;20106;-66
2021/04/14 03:02:36;;;;;;;5.85;3.47;;;;;;;9.02;44.87;100434.66;4958252;28;20027;-66
2021/04/14 03:05:04;;;;;;;5.05;3.28;;;;;;;9.14;44.47;100463.25;4957849;28;20031;-68
2021/04/14 03:07:30;;;;;;;3.70;3.08;;;;;;;8.96;44.73;100436.56;4958208;28;20046;-66
2021/04/14 03:09:56;;;;;;;4.18;3.10;;;;;;;9.11;44.82;100468.41;4958248;28;20051;-66
2021/04/14 03:12:21;;;;;;;4.03;2.78;;;;;;;9.06;44.63;100469.19;4958115;28;20034;-66
2021/04/14 03:14:47;;;;;;;4.32;3.15;;;;;;;9.03;45.06;100469.75;4957955;28;20023;-68
2021/04/14 03:17:12;;;;;;;4.75;3.40;;;;;;;8.83;44.83;100440.59;4958128;28;20042;-66
2021/04/14 03:19:38;;;;;;;4.28;2.80;;;;;;;8.98;45.02;100467.84;4957740;28;20023;-66
2021/04/14 03:22:04;;;;;;;5.40;3.05;;;;;;;8.97;45.19;100459.91;4957668;28;20408;-66
2021/04/14 03:24:30;;;;;;;5.45;3.20;;;;;;;8.93;45.40;100456.91;4957856;28;20062;-66
2021/04/14 03:26:55;;;;;;;5.25;3.17;;;;;;;8.92;45.25;100463.47;4957901;28;20035;-66
2021/04/14 03:29:21;;;;;;;7.90;3.33;;;;;;;8.90;45.40;100462.91;4957897;28;20531;-67
2021/04/14 03:31:46;;;;;;;5.15;3.17;;;;;;;8.86;45.64;100464.50;4957958;28;20023;-69
2021/04/14 03:34:12;;;;;;;5.15;3.08;;;;;;;8.84;45.35;100466.69;4957931;28;20029;-67
2021/04/14 03:36:37;;;;;;;4.07;2.97;;;;;;;8.77;45.79;100455.22;4959689;28;20576;-66
2021/04/14 03:39:04;;;;;;;4.30;3.30;;;;;;;8.77;45.82;100469.63;4957570;28;20035;-68
2021/04/14 03:41:30;;;;;;;6.40;2.88;;;;;;;8.75;45.79;100471.00;4957506;28;20039;-66
2021/04/14 03:43:56;;;;;;;6.78;2.83;;;;;;;8.72;45.60;100461.44;4957572;28;20034;-66
2021/04/14 03:46:23;;;;;;;4.10;2.95;;;;;;;8.53;45.49;100439.34;4967669;28;20547;-66
2021/04/14 03:48:49;;;;;;;3.88;3.08;;;;;;;8.69;45.29;100461.16;4959775;28;20023;-67
2021/04/14 03:51:15;;;;;;;8.32;3.20;;;;;;;8.64;45.39;100470.94;4957272;28;20035;-67
2021/04/14 03:53:41;;;;;;;8.80;3.38;;;;;;;8.63;45.29;100461.13;4957064;28;20035;-67
2021/04/14 03:56:12;;;;;;;6.63;3.10;;;;;;;8.60;45.61;100456.22;4957417;28;20038;-66
2021/04/14 03:58:40;;;;;;;4.35;3.40;;;;;;;8.57;45.58;100456.75;4957736;28;20023;-66
2021/04/14 04:01:08;;;;;;;7.38;3.28;;;;;;;8.55;45.83;100448.06;4960298;28;20114;-68
2021/04/14 04:03:34;;;;;;;4.32;2.90;;;;;;;8.53;45.39;100454.84;4961839;28;20078;-67
2021/04/14 04:05:59;;;;;;;4.65;3.40;;;;;;;8.50;45.48;100448.03;4961300;28;20066;-66
2021/04/14 04:08:25;;;;;;;4.60;3.08;;;;;;;8.47;45.25;100446.63;4957001;28;20110;-66
2021/04/14 04:10:50;;;;;;;6.90;3.30;;;;;;;8.43;45.58;100445.50;4961116;28;20027;-66
2021/04/14 04:13:17;;;;;;;4.10;3.00;;;;;;;8.42;45.61;100448.50;4961116;28;20118;-68
2021/04/14 04:15:43;;;;;;;4.22;3.15;;;;;;;8.37;45.69;100451.16;4961271;28;20027;-66
2021/04/14 04:18:08;;;;;;;3.65;2.90;;;;;;;8.26;46.00;100448.41;4961646;28;20050;-66
2021/04/14 04:20:34;;;;;;;4.93;3.22;;;;;;;8.21;46.63;100444.84;4958651;28;20024;-67
2021/04/14 04:23:01;;;;;;;3.92;2.97;;;;;;;8.19;46.84;100445.06;4961277;28;20035;-66
2021/04/14 04:25:28;;;;;;;4.85;3.70;;;;;;;8.16;47.07;100445.63;4960750;28;20031;-66
2021/04/14 04:27:54;;;;;;;4.18;2.85;;;;;;;8.01;47.19;100428.13;4960942;28;20051;-66
2021/04/14 04:30:20;;;;;;;4.22;3.10;;;;;;;8.09;47.04;100448.56;4960123;28;20027;-67
2021/04/14 04:32:45;;;;;;;4.45;3.45;;;;;;;8.11;47.29;100440.13;4961161;28;20031;-67
2021/04/14 04:35:12;;;;;;;5.60;3.63;;;;;;;8.02;46.90;100439.81;4960624;28;20037;-66
2021/04/14 04:37:37;;;;;;;4.47;3.20;;;;;;;8.07;46.86;100458.03;4960390;28;20030;-66
2021/04/14 04:40:05;;;;;;;4.63;3.25;;;;;;;8.03;47.16;100455.03;4961164;28;20051;-67
2021/04/14 04:42:31;;;;;;;7.82;3.63;;;;;;;7.95;47.23;100445.44;4960495;28;20081;-67
2021/04/14 04:44:57;;;;;;;3.78;3.20;;;;;;;7.92;47.54;100456.00;4960328;28;20110;-66
2021/04/14 04:47:22;;;;;;;6.95;3.58;;;;;;;7.93;47.52;100449.50;4962426;28;20046;-66
2021/04/14 04:49:47;;;;;;;5.47;3.60;;;;;;;7.91;47.49;100454.38;4960488;28;20089;-68
2021/04/14 04:52:13;;;;;;;6.25;3.40;;;;;;;7.84;47.68;100462.75;4960247;28;20066;-66
2021/04/14 04:54:38;;;;;;;6.85;3.63;;;;;;;7.80;48.09;100443.44;4960721;28;20444;-66
2021/04/14 04:57:04;;;;;;;5.68;3.70;;;;;;;7.78;47.82;100450.19;4960053;28;20417;-67
2021/04/14 04:59:29;;;;;;;4.57;3.38;;;;;;;7.75;47.67;100451.53;4960713;28;20022;-67
2021/04/14 05:01:58;;;;;;;6.90;3.38;;;;;;;7.61;48.13;100443.00;4960715;28;20159;-66
2021/04/14 05:04:24;;;;;;;5.00;3.63;;;;;;;7.52;48.30;100429.09;4960530;28;20035;-68
2021/04/14 05:06:50;;;;;;;5.50;3.83;;;;;;;7.70;48.03;100457.72;4960137;28;20042;-67
2021/04/14 05:09:15;;;;;;;6.05;3.95;;;;;;;7.69;48.33;100461.53;4965407;28;20031;-67
2021/04/14 05:11:41;;;;;;;9.32;4.18;;;;;;;7.67;48.25;100466.41;4962326;28;20023;-67
2021/04/14 05:14:06;;;;;;;6.38;4.30;;;;;;;7.64;48.56;100455.25;4960431;28;20027;-67
2021/04/14 05:16:32;;;;;;;6.80;3.58;;;;;;;7.60;48.35;100463.09;4959869;28;20503;-68
2021/04/14 05:18:57;;;;;;;5.72;3.75;;;;;;;7.62;48.75;100466.34;4960388;28;20078;-66
2021/04/14 05:21:23;;;;;;;7.93;3.90;;;;;;;7.64;48.67;100453.34;4959649;28;20031;-67
2021/04/14 05:23:49;;;;;;;6.03;4.25;;;;;;;7.64;48.56;100466.09;4960094;28;20028;-67
2021/04/14 05:26:15;;;;;;;6.68;4.30;;;;;;;7.59;48.66;100469.59;4960044;28;20065;-66
2021/04/14 05:28:44;;;;;;;5.60;3.83;;;;;;;7.58;48.65;100465.22;4959905;28;20107;-67
2021/04/14 05:31:11;;;;;;;8.07;4.28;;;;;;;7.57;48.73;100469.03;4959701;28;20058;-66
2021/04/14 05:33:37;;;;;;;7.00;3.90;;;;;;;7.60;48.42;100473.94;4960197;28;20396;-67
2021/04/14 05:36:03;;;;;;;6.38;3.90;;;;;;;7.59;48.60;100471.47;4962169;28;20365;-68
2021/04/14 05:38:30;;;;;;;9.82;4.40;;;;;;;7.46;48.97;100462.69;4959238;28;20040;-66
2021/04/14 05:40:57;;;;;;;9.00;4.55;;;;;;;7.46;48.85;100470.81;4959489;28;20038;-67
2021/04/14 05:43:36;;;;;;;8.18;4.13;;;;;;;7.46;49.18;100475.41;4959547;28;20042;-67
2021/04/14 05:46:07;;;;;;;8.10;4.53;;;;;;;7.39;49.08;100468.31;4959317;28;20063;-68
2021/04/14 05:48:34;;;;;;;6.63;4.07;;;;;;;7.34;49.22;100473.69;4959499;28;20031;-67
2021/04/14 05:51:04;;;;;;;8.82;4.20;;;;;;;7.34;49.41;100476.41;4958558;28;20038;-67
2021/04/14 05:53:30;;;;;;;7.55;4.70;;;;;;;7.20;49.50;100458.84;4959158;28;20031;-66
2021/04/14 05:55:55;;;;;;;8.27;4.47;;;;;;;7.32;49.35;100478.53;4959839;28;20019;-66
2021/04/14 05:58:21;;;;;;;7.45;4.13;;;;;;;7.36;49.75;100473.41;4959752;28;20079;-67
2021/04/14 06:00:46;;;;;;;7.25;4.20;;;;;;;7.44;49.25;100472.16;4958721;28;20031;-68
2021/04/14 06:03:12;;;;;;;9.45;4.57;;;;;;;7.53;49.30;100478.72;4959193;28;20062;-68
2021/04/14 06:05:37;;;;;;;7.18;4.28;;;;;;;7.60;49.43;100478.53;4958954;28;20019;-68
2021/04/14 06:08:03;;;;;;;5.18;4.30;;;;;;;7.60;49.49;100481.25;4959251;28;20039;-68
2021/04/14 06:10:28;;;;;;;5.57;4.18;;;;;;;7.62;49.20;100485.34;4967270;28;20031;-66
2021/04/14 06:12:54;;;;;;;6.55;4.72;;;;;;;7.64;49.28;100490.53;4959099;28;20440;-66
2021/04/14 06:15:24;;;;;;;10.35;5.85;;;;;;;7.64;48.96;100482.41;4958968;28;20023;-66
2021/04/14 06:17:50;;;;;;;5.85;4.47;;;;;;;7.58;49.23;100478.81;4959239;28;20035;-67
2021/04/14 06:20:18;;;;;;;4.90;3.95;;;;;;;7.81;48.89;100496.63;4958729;28;20034;-68
2021/04/14 06:22:44;;;;;;;7.47;4.30;;;;;;;7.85;48.29;100484.22;4959002;28;20126;-66
2021/04/14 06:25:14;;;;;;;8.77;4.05;;;;;;;8.01;47.96;100504.19;4958152;28;20090;-66
2021/04/14 06:27:58;;;;;;;10.70;4.00;;;;;;;8.08;47.72;100503.94;4957652;28;20047;-66
2021/04/14 06:30:24;;;;;;;6.03;4.07;;;;;;;8.17;47.59;100490.72;4958675;28;20059;-66
2021/04/14 06:32:50;;;;;;;5.60;3.95;;;;;;;8.30;47.13;100490.25;4956870;28;20044;-68
2021/04/14 06:35:17;;;;;;;8.02;4.00;;;;;;;8.43;46.97;100491.72;4958899;28;20015;-68
2021/04/14 06:37:43;;;;;;;5.38;3.80;;;;;;;8.54;46.79;100500.78;4956914;28;20050;-67
2021/04/14 06:40:31;;;;;;;5.63;3.70;;;;;;;8.64;46.33;100489.97;4957723;28;20027;-66
2021/04/14 06:43:41;;;;;;;7.97;3.53;;;;;;;8.63;46.08;100473.94;4953765;28;20384;-67
2021/04/14 06:46:29;;;;;;;7.95;3.95;;;;;;;8.84;45.93;100493.06;4957350;28;20071;-67
2021/04/14 06:49:25;;;;;;;10.98;4.72;;;;;;;8.91;45.68;100496.34;4957106;28;20031;-67
2021/04/14 06:52:08;;;;;;;5.18;3.50;;;;;;;8.89;45.71;100476.75;4957721;28;20039;-67
2021/04/14 06:54:50;;;;;;;8.77;4.03;;;;;;;9.07;45.81;100494.53;4957440;28;20434;-68
2021/04/14 06:57:18;;;;;;;10.15;4.28;;;;;;;9.16;45.29;100494.81;4954353;28;20041;-68
2021/04/14 06:59:50;;;;;;;7.30;3.80;;;;;;;9.22;44.76;100494.56;4957414;28;20027;-67
2021/04/14 07:02:22;;;;;;;7.32;3.72;;;;;;;9.24;44.55;100492.41;4956925;28;20075;-68
2021/04/14 07:05:29;;;;;;;6.03;3.50;;;;;;;9.25;44.56;100499.50;4957842;28;20113;-69
2021/04/14 07:07:59;;;;;;;6.38;4.38;;;;;;;9.24;44.80;100492.41;4956758;28;20047;-70
2021/04/14 07:10:31;;;;;;;8.02;4.38;;;;;;;9.27;44.98;100494.56;4967764;28;20027;-70
2021/04/14 07:13:04;;;;;;;7.65;4.22;;;;;;;9.32;44.56;100496.50;4971921;28;20027;-70
2021/04/14 07:15:30;;;;;;;8.13;4.45;;;;;;;9.33;44.76;100495.41;4957862;28;20023;-69
2021/04/14 07:18:20;;;;;;;7.60;3.80;;;;;;;9.36;44.47;100488.63;4958614;28;20086;-70
2021/04/14 07:20:58;;;;;;;7.82;4.32;;;;;;;9.35;44.46;100495.97;4948408;28;20034;-71
2021/04/14 07:23:27;;;;;;;9.25;4.10;;;;;;;9.32;44.11;100487.53;4958139;28;20106;-70
2021/04/14 07:25:53;;;;;;;10.43;4.18;;;;;;;9.21;43.74;100482.06;4958369;28;20042;-70
2021/04/14 07:28:40;;;;;;;5.93;3.97;;;;;;;9.21;44.05;100481.25;4957508;28;20063;-70
2021/04/14 07:31:12;;;;;;;5.40;3.88;;;;;;;9.11;43.94;100462.97;4958259;28;20031;-70
2021/04/14 07:33:49;;;;;;;7.28;4.07;;;;;;;9.28;43.65;100489.97;4958284;28;20074;-70
2021/04/14 07:36:21;;;;;;;5.22;3.65;;;;;;;9.29;43.76;100481.53;4963116;28;20023;-70
2021/04/14 07:39:11;;;;;;;5.72;4.00;;;;;;;9.34;43.30;100480.72;4957951;28;20027;-71
2021/04/14 07:42:02;;;;;;;6.47;3.97;;;;;;;9.34;43.52;100479.91;4952575;28;20027;-70
2021/04/14 07:44:35;;;;;;;6.43;3.80;;;;;;;9.09;43.40;100438.75;4956501;28;20031;-70
2021/04/14 07:47:01;;;;;;;4.55;3.80;;;;;;;9.39;43.41;100474.47;4970424;28;20514;-70
2021/04/14 07:49:33;;;;;;;5.50;3.72;;;;;;;9.46;43.26;100466.88;4958024;28;20117;-70
2021/04/14 07:51:58;;;;;;;10.25;4.30;;;;;;;9.53;43.24;100472.88;4957647;28;20063;-70
2021/04/14 07:54:25;;;;;;;6.68;3.90;;;;;;;9.55;43.43;100465.25;4958030;28;20086;-70
2021/04/14 07:56:56;;;;;;;5.32;3.47;;;;;;;9.56;43.07;100472.34;4957967;28;20024;-70
2021/04/14 07:59:30;;;;;;;6.80;3.95;;;;;;;9.55;43.30;100464.44;4957867;28;20027;-70
2021/04/14 08:02:25;;;;;;;5.70;3.58;;;;;;;9.56;42.82;100466.06;4958015;28;20030;-70
2021/04/14 08:04:52;;;;;;;5.97;4.05;;;;;;;9.52;43.15;100468.50;4957589;28;20035;-70
2021/04/14 08:07:23;;;;;;;7.28;4.28;;;;;;;9.56;42.97;100471.50;4957841;28;20118;-71
2021/04/14 08:10:13;;;;;;;5.85;4.00;;;;;;;9.62;43.33;100470.44;4963053;28;20059;-71
2021/04/14 08:13:06;;;;;;;6.13;3.75;;;;;;;9.72;42.90;100467.72;4957714;28;20031;-70
2021/04/14 08:15:45;;;;;;;5.20;3.70;;;;;;;9.80;43.55;100476.44;4957803;28;20027;-71
2021/04/14 08:18:17;;;;;;;7.28;4.13;;;;;;;9.94;42.92;100466.66;4957896;28;20031;-70
2021/04/14 08:20:48;;;;;;;7.85;4.95;;;;;;;10.06;43.18;100469.09;4957513;28;20416;-70
2021/04/14 08:23:24;;;;;;;6.38;4.30;;;;;;;10.17;42.78;100473.44;4957702;28;20100;-70
2021/04/14 08:25:56;;;;;;;5.93;4.43;;;;;;;10.20;42.42;100481.06;4957377;28;20063;-70
2021/04/14 08:28:39;;;;;;;8.32;4.53;;;;;;;10.23;42.83;100472.38;4957227;28;20059;-70
2021/04/14 08:31:07;;;;;;;13.57;4.65;;;;;;;10.28;42.96;100466.09;4957839;28;20035;-70
2021/04/14 08:33:33;;;;;;;11.68;4.50;;;;;;;10.31;42.54;100473.69;4957104;28;20035;-71
2021/04/14 08:36:13;;;;;;;7.22;4.28;;;;;;;10.36;42.65;100473.72;4956981;28;20031;-70
2021/04/14 08:38:38;;;;;;;9.07;4.43;;;;;;;10.31;42.51;100475.63;4957193;28;20111;-70
2021/04/14 08:41:05;;;;;;;10.23;4.35;;;;;;;10.29;42.81;100466.91;4955994;28;20520;-68
2021/04/14 08:43:33;;;;;;;7.40;4.65;;;;;;;10.32;42.70;100474.53;4956657;28;20722;-70
2021/04/14 08:46:23;;;;;;;6.78;4.07;;;;;;;10.32;43.24;100471.81;4964657;28;20039;-69
2021/04/14 08:48:53;;;;;;;10.95;5.13;;;;;;;10.35;42.85;100479.41;4958748;28;20393;-69
2021/04/14 08:51:19;;;;;;;7.45;5.10;;;;;;;10.45;43.06;100473.97;4961085;28;20031;-70
2021/04/14 08:53:47;;;;;;;6.25;4.80;;;;;;;10.57;42.83;100472.88;4960852;28;20032;-70
2021/04/14 08:56:13;;;;;;;8.77;5.10;;;;;;;10.64;43.13;100476.13;4960689;28;20030;-70
2021/04/14 08:58:39;;;;;;;7.75;5.65;;;;;;;10.68;42.97;100472.56;4963690;28;20049;-70
2021/04/14 09:01:08;;;;;;;5.65;4.50;;;;;;;10.72;43.08;100464.66;4966770;28;20031;-70
2021/04/14 09:03:39;;;;;;;9.75;5.13;;;;;;;10.84;42.93;100469.78;4960586;28;20038;-69
2021/04/14 09:06:08;;;;;;;8.30;5.75;;;;;;;10.90;42.85;100476.03;4956551;28;20039;-70
2021/04/14 09:08:34;;;;;;;10.10;5.53;;;;;;;10.92;42.40;100476.56;4959186;28;20046;-70
2021/04/14 09:11:01;;;;;;;8.80;5.07;;;;;;;10.95;42.52;100467.84;4962275;28;20038;-69
2021/04/14 09:13:43;;;;;;;8.65;5.43;;;;;;;10.82;42.45;100450.97;4957504;28;20576;-69
2021/04/14 09:16:10;;;;;;;8.35;5.60;;;;;;;11.07;42.62;100475.69;4967974;28;20564;-70
2021/04/14 09:18:43;;;;;;;8.27;4.95;;;;;;;11.03;42.41;100448.94;4964389;28;20054;-69
2021/04/14 09:21:20;;;;;;;8.55;5.47;;;;;;;11.22;42.35;100470.16;4963671;28;20033;-69
2021/04/14 09:24:03;;;;;;;7.30;5.35;;;;;;;11.28;42.08;100466.28;4957867;28;20369;-70
2021/04/14 09:26:31;;;;;;;10.07;5.55;;;;;;;11.32;42.55;100467.38;4960105;28;20034;-69
2021/04/14 09:28:58;;;;;;;12.50;6.35;;;;;;;11.38;42.17;100470.91;4959606;28;20138;-70
2021/04/14 09:31:41;;;;;;;7.03;4.88;;;;;;;11.46;41.62;100461.28;4959811;28;20050;-70
2021/04/14 09:34:36;;;;;;;8.02;5.68;;;;;;;11.50;41.72;100468.63;4959319;28;20584;-69
2021/04/14 09:37:08;;;;;;;7.85;5.50;;;;;;;11.55;41.53;100464.25;4959931;28;20117;-71
2021/04/14 09:40:04;;;;;;;7.22;5.10;;;;;;;11.47;40.76;100443.81;4956385;28;20027;-70
2021/04/14 09:42:29;;;;;;;9.02;4.90;;;;;;;11.54;41.01;100457.16;4950554;28;20053;-70
2021/04/14 09:44:57;;;;;;;6.03;4.88;;;;;;;11.56;40.54;100465.88;4958477;28;20031;-70
2021/04/14 09:47:28;;;;;;;10.70;4.88;;;;;;;11.56;40.15;100461.22;4961248;28;20031;-70
2021/04/14 09:49:56;;;;;;;9.32;4.70;;;;;;;11.56;40.18;100449.50;4959817;28;20031;-70
2021/04/14 09:52:25;;;;;;;9.25;4.65;;;;;;;11.59;39.62;100451.63;4959396;28;20027;-70
2021/04/14 09:54:57;;;;;;;8.05;4.90;;;;;;;11.59;39.54;100454.38;4959529;28;20178;-70
2021/04/14 09:57:30;;;;;;;15.43;5.68;;;;;;;11.67;40.10;100448.31;4967362;28;20034;-70
2021/04/14 09:59:57;;;;;;;11.30;5.50;;;;;;;11.72;39.74;100455.66;4958072;28;20050;-71
2021/04/14 10:02:25;;;;;;;11.60;5.78;;;;;;;11.77;39.90;100456.44;4959495;28;20099;-70
2021/04/14 10:04:51;;;;;;;12.43;5.95;;;;;;;11.83;39.54;100449.00;4974276;28;20051;-71
2021/04/14 10:07:26;;;;;;;14.40;5.72;;;;;;;11.91;39.58;100444.84;4959217;28;20027;-71
2021/04/14 10:10:07;;;;;;;11.40;5.85;;;;;;;11.99;39.59;100451.63;4968852;28;20034;-70
2021/04/14 10:12:33;;;;;;;13.38;5.25;;;;;;;12.05;39.51;100450.47;4947548;28;20432;-71
2021/04/14 10:15:00;;;;;;;16.77;5.30;;;;;;;12.11;39.38;100449.31;4959201;28;20162;-70
2021/04/14 10:17:29;;;;;;;9.07;4.85;;;;;;;12.16;38.87;100445.72;4957878;28;21064;-71
2021/04/14 10:19:56;;;;;;;9.95;4.90;;;;;;;12.24;39.08;100436.91;4959130;28;20103;-70
2021/04/14 10:22:27;;;;;;;8.80;3.42;;;;;;;12.34;38.65;100444.22;4957401;28;20611;-70
2021/04/14 10:25:04;;;;;;;6.85;3.65;;;;;;;12.43;38.23;100435.06;4954962;28;20067;-69
2021/04/14 10:27:31;;;;;;;10.18;4.07;;;;;;;12.50;38.36;100432.00;4949989;28;20075;-69
2021/04/14 10:30:00;;;;;;;9.65;3.67;;;;;;;12.59;38.46;100434.91;4965716;28;20135;-70
2021/04/14 10:32:28;;;;;;;6.97;3.08;;;;;;;12.60;37.28;100428.34;4958693;28;20041;-69
2021/04/14 10:34:53;;;;;;;6.82;3.90;;;;;;;12.61;37.46;100427.22;4964091;28;20031;-70
2021/04/14 10:37:25;;;;;;;7.68;3.60;;;;;;;12.65;36.20;100435.66;4960778;28;20042;-68
2021/04/14 10:39:52;;;;;;;8.13;4.28;;;;;;;12.68;37.19;100429.63;4958691;28;20028;-68
2021/04/14 10:42:26;;;;;;;7.80;3.22;;;;;;;12.78;36.74;100429.47;4958396;28;20027;-70
2021/04/14 10:45:01;;;;;;;4.93;3.40;;;;;;;12.87;36.67;100424.19;4952680;29;20030;-68
2021/04/14 10:47:32;;;;;;;8.52;3.90;;;;;;;12.80;36.35;100404.56;4959414;28;20031;-70
2021/04/14 10:50:01;;;;;;;6.57;4.13;;;;;;;12.94;36.35;100421.06;4958079;28;20035;-69
2021/04/14 10:52:29;;;;;;;6.50;3.08;;;;;;;13.02;36.28;100417.66;4958029;28;20035;-68
2021/04/14 10:55:03;;;;;;;6.80;3.70;;;;;;;13.09;35.99;100418.16;4957881;29;20027;-68
2021/04/14 10:57:36;;;;;;;9.20;2.90;;;;;;;13.19;35.67;100419.91;4957801;29;20069;-68
2021/04/14 11:00:14;;;;;;;4.95;3.30;;;;;;;13.21;35.40;100401.28;4962890;28;20034;-71
2021/04/14 11:02:46;;;;;;;6.80;2.95;;;;;;;13.33;34.75;100412.59;4958008;28;20026;-68
2021/04/14 11:05:14;;;;;;;5.20;2.42;;;;;;;13.40;34.92;100422.38;4966503;28;20028;-70
2021/04/14 11:07:44;;;;;;;6.22;2.75;;;;;;;13.48;35.27;100402.53;4958270;28;20035;-71
2021/04/14 11:10:13;;;;;;;6.00;3.45;;;;;;;13.58;35.46;100402.38;4957868;28;20023;-69
2021/04/14 11:12:44;;;;;;;5.20;3.10;;;;;;;13.67;35.44;100400.59;4958232;28;20492;-69
2021/04/14 11:15:16;;;;;;;7.35;3.67;;;;;;;13.70;34.59;100399.16;4957621;28;20442;-70
2021/04/14 11:17:42;;;;;;;4.78;2.63;;;;;;;13.72;34.55;100396.94;4960305;28;20043;-69
2021/04/14 11:20:15;;;;;;;6.28;2.58;;;;;;;13.72;33.46;100394.22;4958446;28;20030;-69
2021/04/14 11:22:47;;;;;;;6.45;3.28;;;;;;;13.71;33.24;100378.88;4957394;28;20055;-69
2021/04/14 11:25:23;;;;;;;13.40;7.70;;;;;;;13.77;33.44;100385.09;4956667;29;20027;-69
2021/04/14 11:28:01;;;;;;;15.65;9.40;;;;;;;13.83;33.17;100392.94;4946484;29;20055;-68
2021/04/14 11:30:28;;;;;;;5.55;2.83;;;;;;;13.89;32.98;100381.88;4957772;28;20027;-68
2021/04/14 11:32:59;;;;;;;5.68;2.53;;;;;;;13.87;32.50;100381.34;4957877;28;20038;-69
2021/04/14 11:35:33;;;;;;;5.15;2.90;;;;;;;13.91;32.20;100374.16;4957487;28;20031;-69
2021/04/14 11:37:59;;;;;;;7.68;3.40;;;;;;;13.90;32.26;100378.81;4957237;28;20031;-69
2021/04/14 11:40:38;;;;;;;4.97;3.10;;;;;;;13.94;32.21;100379.03;4957335;28;20030;-69